sensor_id;sensor_type;location;lat;lon;timestamp;P1;durP1;ratioP1;P2;durP2;ratioP2
72413;SDS011;60995;52.154;4.498;2023-05-07T00:01:36;56.67;;;40.05;;
72413;SDS011;60995;52.154;4.498;2023-05-07T00:03:52;59.00;;;41.22;;
72413;SDS011;60995;52.154;4.498;2023-05-07T00:06:09;58.55;;;39.63;;
72413;SDS011;60995;52.154;4.498;2023-05-07T00:08:31;56.60;;;41.25;;
72413;SDS011;60995;52.154;4.498;2023-05-07T00:10:47;61.05;;;41.88;;
72413;SDS011;60995;52.154;4.498;2023-05-07T00:13:04;58.60;;;42.80;;
72413;SDS011;60995;52.154;4.498;2023-05-07T00:15:21;57.08;;;41.72;;
72413;SDS011;60995;52.154;4.498;2023-05-07T00:17:38;65.85;;;43.95;;
72413;SDS011;60995;52.154;4.498;2023-05-07T00:19:54;65.00;;;44.45;;
72413;SDS011;60995;52.154;4.498;2023-05-07T00:22:10;65.70;;;45.00;;
72413;SDS011;60995;52.154;4.498;2023-05-07T00:24:27;65.32;;;46.15;;
72413;SDS011;60995;52.154;4.498;2023-05-07T00:26:43;76.00;;;48.35;;
72413;SDS011;60995;52.154;4.498;2023-05-07T00:29:00;69.68;;;47.63;;
72413;SDS011;60995;52.154;4.498;2023-05-07T00:31:16;77.15;;;49.65;;
72413;SDS011;60995;52.154;4.498;2023-05-07T00:33:32;75.78;;;49.45;;
72413;SDS011;60995;52.154;4.498;2023-05-07T00:35:49;79.38;;;50.42;;
72413;SDS011;60995;52.154;4.498;2023-05-07T00:38:05;73.80;;;49.65;;
72413;SDS011;60995;52.154;4.498;2023-05-07T00:40:22;79.18;;;51.10;;
72413;SDS011;60995;52.154;4.498;2023-05-07T00:42:38;74.30;;;48.83;;
72413;SDS011;60995;52.154;4.498;2023-05-07T00:44:54;72.22;;;50.95;;
72413;SDS011;60995;52.154;4.498;2023-05-07T00:47:11;81.57;;;51.60;;
72413;SDS011;60995;52.154;4.498;2023-05-07T00:49:32;86.10;;;52.88;;
72413;SDS011;60995;52.154;4.498;2023-05-07T00:51:55;82.05;;;54.53;;
72413;SDS011;60995;52.154;4.498;2023-05-07T00:54:12;89.85;;;53.05;;
72413;SDS011;60995;52.154;4.498;2023-05-07T00:56:29;84.32;;;54.03;;
72413;SDS011;60995;52.154;4.498;2023-05-07T00:58:47;83.72;;;54.35;;
72413;SDS011;60995;52.154;4.498;2023-05-07T01:01:04;86.93;;;55.33;;
72413;SDS011;60995;52.154;4.498;2023-05-07T01:03:22;85.72;;;52.78;;
72413;SDS011;60995;52.154;4.498;2023-05-07T01:05:38;83.72;;;53.70;;
72413;SDS011;60995;52.154;4.498;2023-05-07T01:07:56;87.13;;;53.85;;
72413;SDS011;60995;52.154;4.498;2023-05-07T01:10:15;86.18;;;56.72;;
72413;SDS011;60995;52.154;4.498;2023-05-07T01:12:33;88.60;;;55.78;;
72413;SDS011;60995;52.154;4.498;2023-05-07T01:14:52;88.20;;;53.92;;
72413;SDS011;60995;52.154;4.498;2023-05-07T01:17:09;86.05;;;55.60;;
72413;SDS011;60995;52.154;4.498;2023-05-07T01:19:25;79.13;;;53.63;;
72413;SDS011;60995;52.154;4.498;2023-05-07T01:21:46;85.15;;;52.55;;
72413;SDS011;60995;52.154;4.498;2023-05-07T01:24:04;83.55;;;53.00;;
72413;SDS011;60995;52.154;4.498;2023-05-07T01:26:22;87.00;;;54.28;;
72413;SDS011;60995;52.154;4.498;2023-05-07T01:28:39;83.15;;;52.03;;
72413;SDS011;60995;52.154;4.498;2023-05-07T01:30:56;76.65;;;49.83;;
72413;SDS011;60995;52.154;4.498;2023-05-07T01:33:21;84.15;;;49.22;;
72413;SDS011;60995;52.154;4.498;2023-05-07T01:35:38;81.25;;;50.97;;
72413;SDS011;60995;52.154;4.498;2023-05-07T01:37:59;83.40;;;49.20;;
72413;SDS011;60995;52.154;4.498;2023-05-07T01:40:20;86.57;;;51.88;;
72413;SDS011;60995;52.154;4.498;2023-05-07T01:42:37;79.57;;;49.25;;
72413;SDS011;60995;52.154;4.498;2023-05-07T01:44:54;78.38;;;48.97;;
72413;SDS011;60995;52.154;4.498;2023-05-07T01:47:10;76.78;;;48.50;;
72413;SDS011;60995;52.154;4.498;2023-05-07T01:49:29;74.32;;;47.15;;
72413;SDS011;60995;52.154;4.498;2023-05-07T01:51:46;76.95;;;47.22;;
72413;SDS011;60995;52.154;4.498;2023-05-07T01:54:02;77.85;;;46.92;;
72413;SDS011;60995;52.154;4.498;2023-05-07T01:56:19;68.68;;;44.22;;
72413;SDS011;60995;52.154;4.498;2023-05-07T01:58:35;72.20;;;45.53;;
72413;SDS011;60995;52.154;4.498;2023-05-07T02:00:54;68.43;;;43.67;;
72413;SDS011;60995;52.154;4.498;2023-05-07T02:03:10;67.85;;;43.17;;
72413;SDS011;60995;52.154;4.498;2023-05-07T02:05:27;67.00;;;41.92;;
72413;SDS011;60995;52.154;4.498;2023-05-07T02:07:43;61.70;;;42.05;;
72413;SDS011;60995;52.154;4.498;2023-05-07T02:09:59;64.93;;;42.88;;
72413;SDS011;60995;52.154;4.498;2023-05-07T02:12:15;67.78;;;44.17;;
72413;SDS011;60995;52.154;4.498;2023-05-07T02:14:32;60.63;;;40.53;;
72413;SDS011;60995;52.154;4.498;2023-05-07T02:16:48;59.28;;;42.45;;
72413;SDS011;60995;52.154;4.498;2023-05-07T02:19:04;61.17;;;40.65;;
72413;SDS011;60995;52.154;4.498;2023-05-07T02:21:21;58.17;;;40.25;;
72413;SDS011;60995;52.154;4.498;2023-05-07T02:23:37;60.88;;;40.75;;
72413;SDS011;60995;52.154;4.498;2023-05-07T02:25:54;57.85;;;39.75;;
72413;SDS011;60995;52.154;4.498;2023-05-07T02:28:10;56.17;;;38.80;;
72413;SDS011;60995;52.154;4.498;2023-05-07T02:30:26;57.70;;;39.92;;
72413;SDS011;60995;52.154;4.498;2023-05-07T02:32:42;55.50;;;40.50;;
72413;SDS011;60995;52.154;4.498;2023-05-07T02:34:59;54.60;;;38.63;;
72413;SDS011;60995;52.154;4.498;2023-05-07T02:37:15;55.58;;;38.92;;
72413;SDS011;60995;52.154;4.498;2023-05-07T02:39:31;53.42;;;38.72;;
72413;SDS011;60995;52.154;4.498;2023-05-07T02:41:48;56.38;;;39.13;;
72413;SDS011;60995;52.154;4.498;2023-05-07T02:44:04;55.15;;;40.40;;
72413;SDS011;60995;52.154;4.498;2023-05-07T02:46:20;63.33;;;41.78;;
72413;SDS011;60995;52.154;4.498;2023-05-07T02:48:36;57.85;;;41.30;;
72413;SDS011;60995;52.154;4.498;2023-05-07T02:50:53;54.20;;;40.65;;
72413;SDS011;60995;52.154;4.498;2023-05-07T02:53:09;57.08;;;41.45;;
72413;SDS011;60995;52.154;4.498;2023-05-07T02:55:26;63.45;;;43.53;;
72413;SDS011;60995;52.154;4.498;2023-05-07T02:57:42;60.42;;;42.67;;
72413;SDS011;60995;52.154;4.498;2023-05-07T02:59:58;60.83;;;43.30;;
72413;SDS011;60995;52.154;4.498;2023-05-07T03:02:14;61.28;;;42.72;;
72413;SDS011;60995;52.154;4.498;2023-05-07T03:04:31;58.88;;;41.33;;
72413;SDS011;60995;52.154;4.498;2023-05-07T03:06:47;59.42;;;41.53;;
72413;SDS011;60995;52.154;4.498;2023-05-07T03:09:03;55.22;;;40.40;;
72413;SDS011;60995;52.154;4.498;2023-05-07T03:11:23;53.88;;;40.13;;
72413;SDS011;60995;52.154;4.498;2023-05-07T03:13:39;50.40;;;39.15;;
72413;SDS011;60995;52.154;4.498;2023-05-07T03:15:55;52.33;;;38.85;;
72413;SDS011;60995;52.154;4.498;2023-05-07T03:18:11;52.97;;;39.03;;
72413;SDS011;60995;52.154;4.498;2023-05-07T03:20:28;52.70;;;37.28;;
72413;SDS011;60995;52.154;4.498;2023-05-07T03:22:44;48.47;;;37.10;;
72413;SDS011;60995;52.154;4.498;2023-05-07T03:25:00;44.75;;;36.40;;
72413;SDS011;60995;52.154;4.498;2023-05-07T03:27:17;47.78;;;36.47;;
72413;SDS011;60995;52.154;4.498;2023-05-07T03:29:33;45.72;;;34.47;;
72413;SDS011;60995;52.154;4.498;2023-05-07T03:31:49;48.72;;;35.58;;
72413;SDS011;60995;52.154;4.498;2023-05-07T03:34:06;46.80;;;35.78;;
72413;SDS011;60995;52.154;4.498;2023-05-07T03:36:22;42.58;;;34.63;;
72413;SDS011;60995;52.154;4.498;2023-05-07T03:38:39;48.78;;;37.88;;
72413;SDS011;60995;52.154;4.498;2023-05-07T03:40:55;46.95;;;35.20;;
72413;SDS011;60995;52.154;4.498;2023-05-07T03:43:11;50.95;;;36.67;;
72413;SDS011;60995;52.154;4.498;2023-05-07T03:45:28;51.42;;;36.75;;
72413;SDS011;60995;52.154;4.498;2023-05-07T03:47:44;45.80;;;34.67;;
72413;SDS011;60995;52.154;4.498;2023-05-07T03:50:00;43.85;;;33.65;;
72413;SDS011;60995;52.154;4.498;2023-05-07T03:52:16;44.58;;;34.67;;
72413;SDS011;60995;52.154;4.498;2023-05-07T03:54:38;46.63;;;33.70;;
72413;SDS011;60995;52.154;4.498;2023-05-07T03:56:54;44.55;;;33.92;;
72413;SDS011;60995;52.154;4.498;2023-05-07T03:59:11;44.72;;;33.40;;
72413;SDS011;60995;52.154;4.498;2023-05-07T04:01:29;43.03;;;32.22;;
72413;SDS011;60995;52.154;4.498;2023-05-07T04:03:45;37.20;;;30.95;;
72413;SDS011;60995;52.154;4.498;2023-05-07T04:06:01;37.83;;;31.00;;
72413;SDS011;60995;52.154;4.498;2023-05-07T04:08:19;42.08;;;32.33;;
72413;SDS011;60995;52.154;4.498;2023-05-07T04:10:35;41.05;;;31.92;;
72413;SDS011;60995;52.154;4.498;2023-05-07T04:12:51;40.00;;;30.92;;
72413;SDS011;60995;52.154;4.498;2023-05-07T04:15:08;37.60;;;31.35;;
72413;SDS011;60995;52.154;4.498;2023-05-07T04:17:24;38.17;;;30.17;;
72413;SDS011;60995;52.154;4.498;2023-05-07T04:19:41;40.40;;;32.65;;
72413;SDS011;60995;52.154;4.498;2023-05-07T04:22:00;38.53;;;29.40;;
72413;SDS011;60995;52.154;4.498;2023-05-07T04:24:17;35.22;;;29.25;;
72413;SDS011;60995;52.154;4.498;2023-05-07T04:26:33;39.00;;;30.42;;
72413;SDS011;60995;52.154;4.498;2023-05-07T04:28:50;37.38;;;28.90;;
72413;SDS011;60995;52.154;4.498;2023-05-07T04:31:06;36.92;;;28.55;;
72413;SDS011;60995;52.154;4.498;2023-05-07T04:33:23;37.60;;;29.23;;
72413;SDS011;60995;52.154;4.498;2023-05-07T04:35:39;37.65;;;27.40;;
72413;SDS011;60995;52.154;4.498;2023-05-07T04:37:55;35.63;;;28.75;;
72413;SDS011;60995;52.154;4.498;2023-05-07T04:40:11;38.40;;;30.17;;
72413;SDS011;60995;52.154;4.498;2023-05-07T04:42:28;36.35;;;28.08;;
72413;SDS011;60995;52.154;4.498;2023-05-07T04:44:44;33.50;;;27.83;;
72413;SDS011;60995;52.154;4.498;2023-05-07T04:47:01;36.35;;;28.52;;
72413;SDS011;60995;52.154;4.498;2023-05-07T04:49:17;37.88;;;28.55;;
72413;SDS011;60995;52.154;4.498;2023-05-07T04:51:34;34.88;;;28.35;;
72413;SDS011;60995;52.154;4.498;2023-05-07T04:53:51;34.38;;;27.00;;
72413;SDS011;60995;52.154;4.498;2023-05-07T04:56:07;34.97;;;26.05;;
72413;SDS011;60995;52.154;4.498;2023-05-07T04:58:23;35.05;;;27.63;;
72413;SDS011;60995;52.154;4.498;2023-05-07T05:00:40;33.38;;;26.00;;
72413;SDS011;60995;52.154;4.498;2023-05-07T05:02:58;30.38;;;25.35;;
72413;SDS011;60995;52.154;4.498;2023-05-07T05:05:14;29.85;;;24.80;;
72413;SDS011;60995;52.154;4.498;2023-05-07T05:07:30;30.85;;;24.23;;
72413;SDS011;60995;52.154;4.498;2023-05-07T05:09:47;28.90;;;24.00;;
72413;SDS011;60995;52.154;4.498;2023-05-07T05:12:04;29.35;;;23.75;;
72413;SDS011;60995;52.154;4.498;2023-05-07T05:14:22;28.08;;;22.80;;
72413;SDS011;60995;52.154;4.498;2023-05-07T05:16:39;30.70;;;22.45;;
72413;SDS011;60995;52.154;4.498;2023-05-07T05:18:55;29.90;;;22.13;;
72413;SDS011;60995;52.154;4.498;2023-05-07T05:21:12;27.08;;;21.75;;
72413;SDS011;60995;52.154;4.498;2023-05-07T05:23:28;25.70;;;21.50;;
72413;SDS011;60995;52.154;4.498;2023-05-07T05:25:44;24.85;;;20.27;;
72413;SDS011;60995;52.154;4.498;2023-05-07T05:28:00;26.40;;;20.92;;
72413;SDS011;60995;52.154;4.498;2023-05-07T05:30:17;24.73;;;20.75;;
72413;SDS011;60995;52.154;4.498;2023-05-07T05:32:33;30.73;;;22.17;;
72413;SDS011;60995;52.154;4.498;2023-05-07T05:34:49;25.30;;;20.45;;
72413;SDS011;60995;52.154;4.498;2023-05-07T05:37:06;25.10;;;19.88;;
72413;SDS011;60995;52.154;4.498;2023-05-07T05:39:23;26.33;;;22.10;;
72413;SDS011;60995;52.154;4.498;2023-05-07T05:41:39;29.13;;;22.52;;
72413;SDS011;60995;52.154;4.498;2023-05-07T05:43:56;24.50;;;20.23;;
72413;SDS011;60995;52.154;4.498;2023-05-07T05:46:12;29.58;;;22.42;;
72413;SDS011;60995;52.154;4.498;2023-05-07T05:48:28;27.85;;;21.75;;
72413;SDS011;60995;52.154;4.498;2023-05-07T05:50:45;27.25;;;21.45;;
72413;SDS011;60995;52.154;4.498;2023-05-07T05:53:01;24.88;;;20.58;;
72413;SDS011;60995;52.154;4.498;2023-05-07T05:55:18;28.65;;;22.25;;
72413;SDS011;60995;52.154;4.498;2023-05-07T05:57:35;25.85;;;20.52;;
72413;SDS011;60995;52.154;4.498;2023-05-07T05:59:51;25.45;;;20.05;;
72413;SDS011;60995;52.154;4.498;2023-05-07T06:02:08;27.95;;;20.50;;
72413;SDS011;60995;52.154;4.498;2023-05-07T06:04:24;26.95;;;21.73;;
72413;SDS011;60995;52.154;4.498;2023-05-07T06:06:40;25.55;;;19.67;;
72413;SDS011;60995;52.154;4.498;2023-05-07T06:08:57;26.83;;;20.17;;
72413;SDS011;60995;52.154;4.498;2023-05-07T06:11:13;28.00;;;19.17;;
72413;SDS011;60995;52.154;4.498;2023-05-07T06:13:30;22.77;;;18.10;;
72413;SDS011;60995;52.154;4.498;2023-05-07T06:15:46;24.48;;;20.17;;
72413;SDS011;60995;52.154;4.498;2023-05-07T06:18:02;23.60;;;19.38;;
72413;SDS011;60995;52.154;4.498;2023-05-07T06:20:19;20.98;;;17.80;;
72413;SDS011;60995;52.154;4.498;2023-05-07T06:22:35;24.88;;;18.77;;
72413;SDS011;60995;52.154;4.498;2023-05-07T06:24:51;21.15;;;16.63;;
72413;SDS011;60995;52.154;4.498;2023-05-07T06:27:08;25.10;;;17.60;;
72413;SDS011;60995;52.154;4.498;2023-05-07T06:29:24;24.38;;;17.15;;
72413;SDS011;60995;52.154;4.498;2023-05-07T06:31:41;21.48;;;17.00;;
72413;SDS011;60995;52.154;4.498;2023-05-07T06:33:57;22.10;;;17.13;;
72413;SDS011;60995;52.154;4.498;2023-05-07T06:36:14;25.58;;;17.70;;
72413;SDS011;60995;52.154;4.498;2023-05-07T06:38:31;21.92;;;17.23;;
72413;SDS011;60995;52.154;4.498;2023-05-07T06:40:48;23.73;;;17.70;;
72413;SDS011;60995;52.154;4.498;2023-05-07T06:43:05;24.35;;;18.63;;
72413;SDS011;60995;52.154;4.498;2023-05-07T06:45:21;21.60;;;17.50;;
72413;SDS011;60995;52.154;4.498;2023-05-07T06:47:38;20.38;;;17.05;;
72413;SDS011;60995;52.154;4.498;2023-05-07T06:49:54;23.05;;;18.75;;
72413;SDS011;60995;52.154;4.498;2023-05-07T06:52:10;23.30;;;16.90;;
72413;SDS011;60995;52.154;4.498;2023-05-07T06:54:27;23.10;;;16.05;;
72413;SDS011;60995;52.154;4.498;2023-05-07T06:56:45;21.38;;;16.73;;
72413;SDS011;60995;52.154;4.498;2023-05-07T06:59:02;21.83;;;17.50;;
72413;SDS011;60995;52.154;4.498;2023-05-07T07:01:19;21.38;;;15.77;;
72413;SDS011;60995;52.154;4.498;2023-05-07T07:03:35;19.83;;;14.77;;
72413;SDS011;60995;52.154;4.498;2023-05-07T07:05:52;18.95;;;13.32;;
72413;SDS011;60995;52.154;4.498;2023-05-07T07:08:09;16.67;;;12.98;;
72413;SDS011;60995;52.154;4.498;2023-05-07T07:10:26;15.07;;;11.13;;
72413;SDS011;60995;52.154;4.498;2023-05-07T07:12:42;16.92;;;12.15;;
72413;SDS011;60995;52.154;4.498;2023-05-07T07:14:59;15.45;;;12.35;;
72413;SDS011;60995;52.154;4.498;2023-05-07T07:17:15;13.98;;;11.77;;
72413;SDS011;60995;52.154;4.498;2023-05-07T07:19:32;19.75;;;12.70;;
72413;SDS011;60995;52.154;4.498;2023-05-07T07:21:48;15.60;;;12.35;;
72413;SDS011;60995;52.154;4.498;2023-05-07T07:24:04;16.55;;;12.18;;
72413;SDS011;60995;52.154;4.498;2023-05-07T07:26:21;15.55;;;12.32;;
72413;SDS011;60995;52.154;4.498;2023-05-07T07:28:43;17.42;;;13.07;;
72413;SDS011;60995;52.154;4.498;2023-05-07T07:31:01;16.23;;;13.35;;
72413;SDS011;60995;52.154;4.498;2023-05-07T07:33:18;14.55;;;10.63;;
72413;SDS011;60995;52.154;4.498;2023-05-07T07:35:34;16.52;;;11.50;;
72413;SDS011;60995;52.154;4.498;2023-05-07T07:37:51;15.45;;;12.07;;
72413;SDS011;60995;52.154;4.498;2023-05-07T07:40:07;15.25;;;11.68;;
72413;SDS011;60995;52.154;4.498;2023-05-07T07:42:24;14.50;;;11.48;;
72413;SDS011;60995;52.154;4.498;2023-05-07T07:44:40;15.45;;;11.85;;
72413;SDS011;60995;52.154;4.498;2023-05-07T07:46:57;14.77;;;11.23;;
72413;SDS011;60995;52.154;4.498;2023-05-07T07:49:13;13.90;;;10.82;;
72413;SDS011;60995;52.154;4.498;2023-05-07T07:51:30;13.80;;;10.98;;
72413;SDS011;60995;52.154;4.498;2023-05-07T07:53:47;13.73;;;10.40;;
72413;SDS011;60995;52.154;4.498;2023-05-07T07:56:03;17.15;;;10.77;;
72413;SDS011;60995;52.154;4.498;2023-05-07T07:58:20;14.70;;;10.48;;
72413;SDS011;60995;52.154;4.498;2023-05-07T08:00:37;16.63;;;10.80;;
72413;SDS011;60995;52.154;4.498;2023-05-07T08:02:54;14.25;;;10.57;;
72413;SDS011;60995;52.154;4.498;2023-05-07T08:05:10;17.15;;;9.70;;
72413;SDS011;60995;52.154;4.498;2023-05-07T08:07:26;12.15;;;8.13;;
72413;SDS011;60995;52.154;4.498;2023-05-07T08:09:43;12.55;;;8.70;;
72413;SDS011;60995;52.154;4.498;2023-05-07T08:11:59;14.00;;;9.10;;
72413;SDS011;60995;52.154;4.498;2023-05-07T08:14:17;11.55;;;7.75;;
72413;SDS011;60995;52.154;4.498;2023-05-07T08:16:33;12.98;;;8.00;;
72413;SDS011;60995;52.154;4.498;2023-05-07T08:18:50;14.50;;;8.27;;
72413;SDS011;60995;52.154;4.498;2023-05-07T08:21:06;12.75;;;8.27;;
72413;SDS011;60995;52.154;4.498;2023-05-07T08:23:22;15.18;;;8.15;;
72413;SDS011;60995;52.154;4.498;2023-05-07T08:25:39;11.57;;;7.22;;
72413;SDS011;60995;52.154;4.498;2023-05-07T08:27:55;14.07;;;8.25;;
72413;SDS011;60995;52.154;4.498;2023-05-07T08:30:12;14.05;;;7.88;;
72413;SDS011;60995;52.154;4.498;2023-05-07T08:32:29;12.30;;;8.95;;
72413;SDS011;60995;52.154;4.498;2023-05-07T08:34:45;14.13;;;7.88;;
72413;SDS011;60995;52.154;4.498;2023-05-07T08:37:03;16.27;;;9.40;;
72413;SDS011;60995;52.154;4.498;2023-05-07T08:39:19;13.52;;;9.30;;
72413;SDS011;60995;52.154;4.498;2023-05-07T08:41:36;11.32;;;7.80;;
72413;SDS011;60995;52.154;4.498;2023-05-07T08:43:53;12.40;;;8.18;;
72413;SDS011;60995;52.154;4.498;2023-05-07T08:46:17;11.68;;;6.68;;
72413;SDS011;60995;52.154;4.498;2023-05-07T08:48:35;12.68;;;7.70;;
72413;SDS011;60995;52.154;4.498;2023-05-07T08:50:52;13.57;;;7.45;;
72413;SDS011;60995;52.154;4.498;2023-05-07T08:53:09;13.18;;;8.20;;
72413;SDS011;60995;52.154;4.498;2023-05-07T08:55:25;13.85;;;7.43;;
72413;SDS011;60995;52.154;4.498;2023-05-07T08:57:44;10.95;;;5.88;;
72413;SDS011;60995;52.154;4.498;2023-05-07T09:00:01;11.32;;;6.05;;
72413;SDS011;60995;52.154;4.498;2023-05-07T09:02:19;11.90;;;6.55;;
72413;SDS011;60995;52.154;4.498;2023-05-07T09:04:36;12.80;;;6.30;;
72413;SDS011;60995;52.154;4.498;2023-05-07T09:06:53;12.07;;;5.40;;
72413;SDS011;60995;52.154;4.498;2023-05-07T09:09:09;13.32;;;6.65;;
72413;SDS011;60995;52.154;4.498;2023-05-07T09:11:29;13.07;;;6.78;;
72413;SDS011;60995;52.154;4.498;2023-05-07T09:13:46;13.95;;;7.78;;
72413;SDS011;60995;52.154;4.498;2023-05-07T09:16:11;13.88;;;7.20;;
72413;SDS011;60995;52.154;4.498;2023-05-07T09:18:28;10.80;;;7.22;;
72413;SDS011;60995;52.154;4.498;2023-05-07T09:20:45;14.70;;;8.65;;
72413;SDS011;60995;52.154;4.498;2023-05-07T09:23:01;14.30;;;8.93;;
72413;SDS011;60995;52.154;4.498;2023-05-07T09:25:20;15.63;;;8.10;;
72413;SDS011;60995;52.154;4.498;2023-05-07T09:27:45;14.00;;;8.75;;
72413;SDS011;60995;52.154;4.498;2023-05-07T09:30:05;13.38;;;6.97;;
72413;SDS011;60995;52.154;4.498;2023-05-07T09:32:22;12.65;;;7.55;;
72413;SDS011;60995;52.154;4.498;2023-05-07T09:34:42;11.30;;;6.90;;
72413;SDS011;60995;52.154;4.498;2023-05-07T09:37:02;12.23;;;6.88;;
72413;SDS011;60995;52.154;4.498;2023-05-07T09:39:20;13.82;;;7.78;;
72413;SDS011;60995;52.154;4.498;2023-05-07T09:41:43;14.50;;;7.75;;
72413;SDS011;60995;52.154;4.498;2023-05-07T09:44:03;13.82;;;7.05;;
72413;SDS011;60995;52.154;4.498;2023-05-07T09:46:19;14.02;;;7.03;;
72413;SDS011;60995;52.154;4.498;2023-05-07T09:48:45;12.32;;;7.28;;
72413;SDS011;60995;52.154;4.498;2023-05-07T09:51:05;16.52;;;9.02;;
72413;SDS011;60995;52.154;4.498;2023-05-07T09:55:53;12.68;;;7.10;;
72413;SDS011;60995;52.154;4.498;2023-05-07T09:58:11;12.05;;;6.53;;
72413;SDS011;60995;52.154;4.498;2023-05-07T10:00:30;12.95;;;7.50;;
72413;SDS011;60995;52.154;4.498;2023-05-07T10:02:48;14.10;;;8.00;;
72413;SDS011;60995;52.154;4.498;2023-05-07T10:05:08;16.13;;;7.80;;
72413;SDS011;60995;52.154;4.498;2023-05-07T10:07:25;12.50;;;7.15;;
72413;SDS011;60995;52.154;4.498;2023-05-07T10:09:43;16.48;;;8.15;;
72413;SDS011;60995;52.154;4.498;2023-05-07T10:12:02;14.73;;;8.40;;
72413;SDS011;60995;52.154;4.498;2023-05-07T10:14:19;12.52;;;7.40;;
72413;SDS011;60995;52.154;4.498;2023-05-07T10:16:37;13.25;;;7.28;;
72413;SDS011;60995;52.154;4.498;2023-05-07T10:18:54;12.45;;;7.55;;
72413;SDS011;60995;52.154;4.498;2023-05-07T10:21:17;14.93;;;7.75;;
72413;SDS011;60995;52.154;4.498;2023-05-07T10:25:54;12.18;;;5.97;;
72413;SDS011;60995;52.154;4.498;2023-05-07T10:28:13;11.80;;;6.65;;
72413;SDS011;60995;52.154;4.498;2023-05-07T10:30:45;12.27;;;7.32;;
72413;SDS011;60995;52.154;4.498;2023-05-07T10:33:20;14.43;;;6.97;;
72413;SDS011;60995;52.154;4.498;2023-05-07T10:38:02;12.82;;;6.57;;
72413;SDS011;60995;52.154;4.498;2023-05-07T10:40:20;12.27;;;6.75;;
72413;SDS011;60995;52.154;4.498;2023-05-07T10:42:37;12.00;;;6.85;;
72413;SDS011;60995;52.154;4.498;2023-05-07T10:44:54;13.73;;;6.07;;
72413;SDS011;60995;52.154;4.498;2023-05-07T10:47:11;10.80;;;6.32;;
72413;SDS011;60995;52.154;4.498;2023-05-07T10:49:29;11.38;;;6.18;;
72413;SDS011;60995;52.154;4.498;2023-05-07T10:51:46;11.00;;;6.50;;
72413;SDS011;60995;52.154;4.498;2023-05-07T10:54:31;15.00;;;6.95;;
72413;SDS011;60995;52.154;4.498;2023-05-07T10:56:49;14.45;;;7.03;;
72413;SDS011;60995;52.154;4.498;2023-05-07T11:01:54;10.85;;;5.43;;
72413;SDS011;60995;52.154;4.498;2023-05-07T11:04:14;10.38;;;5.78;;
72413;SDS011;60995;52.154;4.498;2023-05-07T11:06:31;11.00;;;5.10;;
72413;SDS011;60995;52.154;4.498;2023-05-07T11:08:56;11.88;;;6.38;;
72413;SDS011;60995;52.154;4.498;2023-05-07T11:11:14;11.80;;;6.65;;
72413;SDS011;60995;52.154;4.498;2023-05-07T11:13:43;13.38;;;7.38;;
72413;SDS011;60995;52.154;4.498;2023-05-07T11:16:02;14.00;;;7.70;;
72413;SDS011;60995;52.154;4.498;2023-05-07T11:18:19;12.82;;;6.88;;
72413;SDS011;60995;52.154;4.498;2023-05-07T11:23:33;12.32;;;7.30;;
72413;SDS011;60995;52.154;4.498;2023-05-07T11:25:47;14.75;;;8.20;;
72413;SDS011;60995;52.154;4.498;2023-05-07T11:28:05;12.27;;;7.13;;
72413;SDS011;60995;52.154;4.498;2023-05-07T11:30:25;15.55;;;7.60;;
72413;SDS011;60995;52.154;4.498;2023-05-07T11:32:42;13.25;;;6.18;;
72413;SDS011;60995;52.154;4.498;2023-05-07T11:34:59;13.27;;;5.78;;
72413;SDS011;60995;52.154;4.498;2023-05-07T11:37:17;14.88;;;7.20;;
72413;SDS011;60995;52.154;4.498;2023-05-07T11:39:33;13.65;;;7.75;;
72413;SDS011;60995;52.154;4.498;2023-05-07T11:41:51;13.60;;;6.68;;
72413;SDS011;60995;52.154;4.498;2023-05-07T11:44:08;13.20;;;7.10;;
72413;SDS011;60995;52.154;4.498;2023-05-07T11:46:24;13.02;;;6.70;;
72413;SDS011;60995;52.154;4.498;2023-05-07T11:48:40;12.90;;;5.97;;
72413;SDS011;60995;52.154;4.498;2023-05-07T11:51:04;13.63;;;6.75;;
72413;SDS011;60995;52.154;4.498;2023-05-07T11:53:24;12.35;;;5.97;;
72413;SDS011;60995;52.154;4.498;2023-05-07T11:55:42;17.00;;;7.18;;
72413;SDS011;60995;52.154;4.498;2023-05-07T11:58:00;13.52;;;5.82;;
72413;SDS011;60995;52.154;4.498;2023-05-07T12:00:16;10.95;;;5.63;;
72413;SDS011;60995;52.154;4.498;2023-05-07T12:02:33;20.35;;;8.55;;
72413;SDS011;60995;52.154;4.498;2023-05-07T12:04:50;12.32;;;4.97;;
72413;SDS011;60995;52.154;4.498;2023-05-07T12:07:11;12.93;;;4.60;;
72413;SDS011;60995;52.154;4.498;2023-05-07T12:09:29;13.82;;;6.32;;
72413;SDS011;60995;52.154;4.498;2023-05-07T12:11:49;15.05;;;7.55;;
72413;SDS011;60995;52.154;4.498;2023-05-07T12:14:07;16.10;;;8.45;;
72413;SDS011;60995;52.154;4.498;2023-05-07T12:16:24;16.08;;;7.55;;
72413;SDS011;60995;52.154;4.498;2023-05-07T12:18:40;16.63;;;7.47;;
72413;SDS011;60995;52.154;4.498;2023-05-07T12:20:57;17.88;;;7.15;;
72413;SDS011;60995;52.154;4.498;2023-05-07T12:23:15;17.33;;;7.35;;
72413;SDS011;60995;52.154;4.498;2023-05-07T12:25:38;14.90;;;8.20;;
72413;SDS011;60995;52.154;4.498;2023-05-07T12:28:02;19.15;;;9.18;;
72413;SDS011;60995;52.154;4.498;2023-05-07T12:30:22;17.58;;;9.52;;
72413;SDS011;60995;52.154;4.498;2023-05-07T12:32:38;18.88;;;9.05;;
72413;SDS011;60995;52.154;4.498;2023-05-07T12:34:55;18.17;;;9.10;;
72413;SDS011;60995;52.154;4.498;2023-05-07T12:37:12;17.23;;;8.50;;
72413;SDS011;60995;52.154;4.498;2023-05-07T12:39:29;23.30;;;9.85;;
72413;SDS011;60995;52.154;4.498;2023-05-07T12:41:54;17.88;;;9.30;;
72413;SDS011;60995;52.154;4.498;2023-05-07T12:44:14;19.15;;;9.60;;
72413;SDS011;60995;52.154;4.498;2023-05-07T12:46:31;19.50;;;8.43;;
72413;SDS011;60995;52.154;4.498;2023-05-07T12:48:48;17.80;;;8.20;;
72413;SDS011;60995;52.154;4.498;2023-05-07T12:51:04;16.60;;;8.50;;
72413;SDS011;60995;52.154;4.498;2023-05-07T12:53:23;21.13;;;8.90;;
72413;SDS011;60995;52.154;4.498;2023-05-07T12:55:42;18.70;;;8.35;;
72413;SDS011;60995;52.154;4.498;2023-05-07T12:58:04;23.27;;;10.55;;
72413;SDS011;60995;52.154;4.498;2023-05-07T13:00:36;22.35;;;11.73;;
72413;SDS011;60995;52.154;4.498;2023-05-07T13:02:54;21.73;;;11.07;;
72413;SDS011;60995;52.154;4.498;2023-05-07T13:05:10;23.67;;;13.50;;
72413;SDS011;60995;52.154;4.498;2023-05-07T13:07:27;27.65;;;13.63;;
72413;SDS011;60995;52.154;4.498;2023-05-07T13:09:43;24.75;;;13.07;;
72413;SDS011;60995;52.154;4.498;2023-05-07T13:12:00;27.90;;;13.52;;
72413;SDS011;60995;52.154;4.498;2023-05-07T13:14:17;25.90;;;13.82;;
72413;SDS011;60995;52.154;4.498;2023-05-07T13:16:33;25.65;;;15.52;;
72413;SDS011;60995;52.154;4.498;2023-05-07T13:18:49;30.17;;;18.63;;
72413;SDS011;60995;52.154;4.498;2023-05-07T13:21:06;32.35;;;20.55;;
72413;SDS011;60995;52.154;4.498;2023-05-07T13:23:22;41.20;;;24.58;;
72413;SDS011;60995;52.154;4.498;2023-05-07T13:25:39;48.67;;;24.70;;
72413;SDS011;60995;52.154;4.498;2023-05-07T13:27:56;41.47;;;27.83;;
72413;SDS011;60995;52.154;4.498;2023-05-07T13:30:13;26.67;;;16.38;;
72413;SDS011;60995;52.154;4.498;2023-05-07T13:32:29;34.72;;;21.25;;
72413;SDS011;60995;52.154;4.498;2023-05-07T13:34:46;31.52;;;18.88;;
72413;SDS011;60995;52.154;4.498;2023-05-07T13:37:03;31.00;;;20.23;;
72413;SDS011;60995;52.154;4.498;2023-05-07T13:39:19;33.72;;;22.95;;
72413;SDS011;60995;52.154;4.498;2023-05-07T13:41:35;34.72;;;22.33;;